Time;durP1;ratioP1;P1;durP2;ratioP2;P2;SDS_P1;SDS_P2;PMS_P1;PMS_P2;Temp;Humidity;BMP_temperature;BMP_pressure;BME280_temperature;BME280_humidity;BME280_pressure;Samples;Min_cycle;Max_cycle;Signal;HPM_P1;HPM_P2
2022/07/20 00:00:39;;;;;;;10.10;4.15;;;512.70;2227.20;;;;;;4993388;28;20092;-84
2022/07/20 00:03:14;;;;;;;6.97;3.65;;;512.70;2227.20;;;;;;4992937;28;20053;-85
2022/07/20 00:05:42;;;;;;;6.57;3.75;;;512.80;2227.20;;;;;;4995300;28;20495;-83
2022/07/20 00:08:09;;;;;;;7.40;3.80;;;512.80;2227.20;;;;;;4996694;28;20027;-80
2022/07/20 00:13:21;;;;;;;6.57;3.75;;;512.80;2227.20;;;;;;4998166;28;20057;-83
2022/07/20 00:15:47;;;;;;;7.05;3.88;;;512.40;2252.80;;;;;;4996548;28;20093;-83
2022/07/20 00:18:13;;;;;;;10.32;4.30;;;512.20;2278.40;;;;;;4996671;28;20117;-85
2022/07/20 00:20:39;;;;;;;8.23;3.75;;;512.30;2278.40;;;;;;4996686;28;20114;-84
2022/07/20 00:23:05;;;;;;;6.50;3.28;;;512.50;2252.80;;;;;;4997591;28;20022;-85
2022/07/20 00:25:31;;;;;;;9.13;4.25;;;512.50;2252.80;;;;;;4996289;28;20027;-84
2022/07/20 00:27:57;;;;;;;5.90;3.47;;;512.30;2252.80;;;;;;4996629;28;20081;-86
2022/07/20 00:30:24;;;;;;;7.25;3.70;;;512.50;2227.20;;;;;;4996406;28;20023;-84
2022/07/20 00:32:50;;;;;;;6.47;3.58;;;512.70;2201.60;;;;;;4996746;28;20026;-84
2022/07/20 00:35:17;;;;;;;8.95;3.83;;;512.80;2201.60;;;;;;4997546;28;20137;-83
2022/07/20 00:37:44;;;;;;;9.43;3.50;;;486.70;2201.60;;;;;;4996983;28;20471;-83
2022/07/20 00:40:12;;;;;;;7.60;4.13;;;512.60;2227.20;;;;;;4996536;28;20027;-85
2022/07/20 00:42:38;;;;;;;9.63;4.97;;;512.30;2252.80;;;;;;4996420;28;20053;-82
2022/07/20 00:45:06;;;;;;;10.82;4.35;;;512.60;2252.80;;;;;;4996081;28;20033;-85
2022/07/20 00:47:32;;;;;;;9.25;4.22;;;512.40;2278.40;;;;;;4996197;28;20034;-83
2022/07/20 00:49:59;;;;;;;9.88;3.60;;;487.10;2304.00;;;;;;4996033;28;20027;-83
2022/07/20 00:52:25;;;;;;;5.75;3.97;;;487.30;2304.00;;;;;;4996136;28;20022;-85
2022/07/20 00:54:53;;;;;;;13.75;4.50;;;512.20;2304.00;;;;;;4996122;28;20038;-84
2022/07/20 00:57:20;;;;;;;9.32;3.53;;;487.10;2329.60;;;;;;4995830;28;20030;-86
2022/07/20 00:59:47;;;;;;;6.05;3.70;;;487.00;2329.60;;;;;;4996202;28;20033;-83
2022/07/20 01:02:13;;;;;;;6.28;3.58;;;487.10;2329.60;;;;;;4995936;28;20037;-83
2022/07/20 01:04:39;;;;;;;8.55;4.35;;;487.20;2329.60;;;;;;4995984;28;20034;-85
2022/07/20 01:07:06;;;;;;;8.02;3.83;;;487.10;2329.60;;;;;;5000799;28;20117;-82
2022/07/20 01:09:32;;;;;;;6.88;3.75;;;487.00;2329.60;;;;;;5003664;28;20117;-83
2022/07/20 01:11:58;;;;;;;7.88;4.72;;;487.10;2329.60;;;;;;4999832;28;20022;-85
2022/07/20 01:14:24;;;;;;;8.73;3.83;;;486.90;2329.60;;;;;;4995704;28;20026;-85
2022/07/20 01:16:50;;;;;;;7.35;3.67;;;486.50;2380.80;;;;;;4995141;28;20050;-85
2022/07/20 01:19:16;;;;;;;6.90;3.92;;;486.80;2355.20;;;;;;4995984;28;20042;-84
2022/07/20 01:21:43;;;;;;;8.13;3.97;;;486.80;2355.20;;;;;;4995640;28;20030;-84
2022/07/20 01:24:12;;;;;;;9.27;4.05;;;486.50;2380.80;;;;;;4995269;28;20431;-85
2022/07/20 01:26:40;;;;;;;10.23;4.05;;;486.60;2380.80;;;;;;4995215;28;20033;-82
2022/07/20 01:29:07;;;;;;;9.10;4.50;;;486.60;2380.80;;;;;;4995627;28;20023;-83
2022/07/20 01:31:33;;;;;;;8.00;3.90;;;486.50;2380.80;;;;;;4995415;28;20034;-83
2022/07/20 01:33:59;;;;;;;10.45;4.35;;;486.50;2380.80;;;;;;4995078;28;20391;-84
2022/07/20 01:36:25;;;;;;;12.38;4.10;;;461.70;2380.80;;;;;;4995212;28;20447;-85
2022/07/20 01:38:52;;;;;;;8.30;3.83;;;486.60;2380.80;;;;;;4994924;28;20117;-83
2022/07/20 01:41:18;;;;;;;9.57;4.68;;;461.60;2380.80;;;;;;4995178;28;20034;-83
2022/07/20 01:43:44;;;;;;;7.35;4.13;;;461.60;2380.80;;;;;;4995164;28;20190;-84
2022/07/20 01:46:10;;;;;;;10.48;3.95;;;486.80;2380.80;;;;;;4994906;28;20790;-84
2022/07/20 01:48:36;;;;;;;10.15;5.03;;;461.60;2380.80;;;;;;4994966;28;20483;-85
2022/07/20 01:51:02;;;;;;;8.95;3.80;;;486.40;2380.80;;;;;;4995102;28;20125;-84
2022/07/20 01:53:29;;;;;;;9.20;4.18;;;461.40;2380.80;;;;;;4994779;28;20025;-83
2022/07/20 01:55:54;;;;;;;6.93;4.50;;;461.50;2380.80;;;;;;4994797;28;20109;-86
2022/07/20 01:58:22;;;;;;;7.00;3.90;;;461.50;2380.80;;;;;;4994928;28;20100;-82
2022/07/20 02:00:48;;;;;;;7.63;4.10;;;461.50;2380.80;;;;;;4993854;28;20479;-82
2022/07/20 02:03:15;;;;;;;8.35;4.28;;;461.60;2380.80;;;;;;4993963;28;20057;-84
2022/07/20 02:05:41;;;;;;;7.30;3.95;;;461.60;2380.80;;;;;;4994670;28;20022;-83
2022/07/20 02:08:07;;;;;;;7.18;4.15;;;461.50;2380.80;;;;;;4994496;28;20490;-85
2022/07/20 02:10:33;;;;;;;7.57;3.53;;;461.50;2380.80;;;;;;4995030;28;20034;-86
2022/07/20 02:12:59;;;;;;;6.88;3.83;;;461.30;2380.80;;;;;;4994487;28;20025;-84
2022/07/20 02:18:12;;;;;;;7.88;3.83;;;461.40;2380.80;;;;;;4995763;28;20110;-84
2022/07/20 02:20:38;;;;;;;7.40;3.83;;;461.10;2380.80;;;;;;4994531;28;20026;-85
2022/07/20 02:23:06;;;;;;;8.32;4.05;;;461.30;2380.80;;;;;;4994116;28;20034;-83
2022/07/20 02:25:33;;;;;;;5.88;3.63;;;461.20;2380.80;;;;;;4994506;28;20034;-86
2022/07/20 02:27:58;;;;;;;8.15;3.85;;;461.20;2380.80;;;;;;4993196;28;20485;-84
2022/07/20 02:30:25;;;;;;;10.00;4.40;;;461.20;2380.80;;;;;;4994432;28;20026;-84
2022/07/20 02:32:51;;;;;;;9.95;3.75;;;461.10;2380.80;;;;;;4994581;28;20026;-85
2022/07/20 02:35:17;;;;;;;8.75;3.83;;;461.00;2380.80;;;;;;4994013;28;20525;-84
2022/07/20 02:37:43;;;;;;;5.47;3.70;;;461.00;2380.80;;;;;;4990175;28;20448;-83
2022/07/20 02:40:09;;;;;;;7.55;3.70;;;;;;;;;;4974644;28;20054;-85
2022/07/20 02:42:35;;;;;;;9.85;4.10;;;;;;;;;;4990157;28;20037;-83
2022/07/20 02:45:02;;;;;;;13.75;4.50;;;;;;;;;;4990615;28;20117;-86
2022/07/20 02:47:28;;;;;;;7.68;3.90;;;;;;;;;;4990835;28;20085;-85
2022/07/20 02:49:54;;;;;;;9.18;3.70;;;;;;;;;;4990556;28;20461;-83
2022/07/20 02:52:20;;;;;;;11.07;4.38;;;;;;;;;;4990754;28;20031;-83
2022/07/20 02:54:47;;;;;;;11.43;3.78;;;;;;;;;;4990643;28;20030;-84
2022/07/20 02:57:13;;;;;;;8.27;3.83;;;;;;;;;;4990238;28;20031;-84
2022/07/20 02:59:39;;;;;;;8.80;4.35;;;;;;;;;;4990615;28;20026;-86
2022/07/20 03:02:05;;;;;;;8.05;4.20;;;;;;;;;;4990401;28;20117;-84
2022/07/20 03:04:31;;;;;;;12.93;4.00;;;;;;;;;;4990151;28;20031;-85
2022/07/20 03:06:58;;;;;;;7.57;4.80;;;;;;;;;;4990337;28;20082;-85
2022/07/20 03:09:24;;;;;;;8.43;4.13;;;;;;;;;;4990699;28;20033;-83
2022/07/20 03:11:50;;;;;;;9.05;3.90;;;436.10;2355.20;;;;;;4990678;28;20023;-83
2022/07/20 03:14:16;;;;;;;11.13;4.13;;;436.10;2355.20;;;;;;4974497;28;20030;-85
2022/07/20 03:16:42;;;;;;;8.32;4.45;;;436.00;2355.20;;;;;;4973839;28;20046;-84
2022/07/20 03:19:08;;;;;;;7.40;4.70;;;460.80;2380.80;;;;;;4974153;28;20492;-86
2022/07/20 03:21:34;;;;;;;8.80;4.72;;;436.10;2355.20;;;;;;4974001;28;20431;-82
2022/07/20 03:24:00;;;;;;;8.85;4.70;;;460.80;2380.80;;;;;;4973987;28;20027;-83
2022/07/20 03:26:26;;;;;;;8.82;4.22;;;460.80;2380.80;;;;;;4974114;28;20062;-82
2022/07/20 03:28:52;;;;;;;8.07;5.10;;;436.10;2355.20;;;;;;4974063;28;20027;-83
2022/07/20 03:31:18;;;;;;;6.93;4.53;;;436.00;2355.20;;;;;;4973993;28;20034;-83
2022/07/20 03:33:44;;;;;;;7.78;4.65;;;436.00;2355.20;;;;;;4974368;28;20015;-85
2022/07/20 03:36:10;;;;;;;10.05;4.80;;;435.90;2355.20;;;;;;4974235;28;20397;-85
2022/07/20 03:38:36;;;;;;;6.40;4.50;;;435.80;2355.20;;;;;;4988535;28;20030;-83
2022/07/20 03:41:02;;;;;;;12.20;4.60;;;435.60;2355.20;;;;;;4997470;28;20034;-82
2022/07/20 03:43:28;;;;;;;6.63;4.05;;;435.90;2355.20;;;;;;4997032;28;20026;-85
2022/07/20 03:45:54;;;;;;;9.40;5.05;;;436.00;2355.20;;;;;;4996804;28;20392;-85
2022/07/20 03:48:20;;;;;;;9.70;4.22;;;460.80;2380.80;;;;;;4997404;28;20073;-83
2022/07/20 03:50:46;;;;;;;7.22;4.22;;;436.10;2355.20;;;;;;4997379;28;20023;-83
2022/07/20 03:53:13;;;;;;;9.35;4.25;;;435.90;2355.20;;;;;;4996987;28;20029;-84
2022/07/20 03:55:40;;;;;;;8.95;4.20;;;436.10;2355.20;;;;;;4997276;28;20029;-82
2022/07/20 03:58:06;;;;;;;7.80;4.60;;;436.10;2355.20;;;;;;4997218;28;20037;-82
2022/07/20 04:00:32;;;;;;;9.13;4.70;;;460.80;2380.80;;;;;;4996965;28;20035;-83
2022/07/20 04:02:58;;;;;;;10.05;4.50;;;435.80;2355.20;;;;;;4997416;28;20488;-83
2022/07/20 04:05:24;;;;;;;8.40;4.20;;;435.90;2355.20;;;;;;4996866;28;20054;-84
2022/07/20 04:07:50;;;;;;;8.82;4.03;;;435.90;2355.20;;;;;;4996541;28;20328;-83
2022/07/20 04:10:16;;;;;;;7.80;4.28;;;436.00;2355.20;;;;;;4996865;28;20026;-82
2022/07/20 04:12:42;;;;;;;9.63;4.25;;;436.10;2355.20;;;;;;4996768;28;20030;-84
2022/07/20 04:15:08;;;;;;;8.45;4.88;;;460.80;2380.80;;;;;;4996392;28;20038;-82
2022/07/20 04:17:34;;;;;;;8.98;4.07;;;436.10;2355.20;;;;;;4996716;28;20045;-82
2022/07/20 04:20:01;;;;;;;10.60;4.78;;;436.10;2355.20;;;;;;4996750;28;20109;-84
2022/07/20 04:22:26;;;;;;;8.05;4.70;;;435.90;2355.20;;;;;;4996751;28;20078;-84
2022/07/20 04:24:53;;;;;;;9.82;4.38;;;436.10;2355.20;;;;;;4996781;28;20514;-84
2022/07/20 04:27:19;;;;;;;7.72;4.60;;;460.80;2380.80;;;;;;4996182;28;20045;-83
2022/07/20 04:29:44;;;;;;;10.52;4.72;;;460.80;2380.80;;;;;;4996367;28;20464;-83
2022/07/20 04:32:10;;;;;;;11.82;5.07;;;435.90;2355.20;;;;;;4996348;28;20026;-83
2022/07/20 04:34:36;;;;;;;8.43;4.10;;;436.10;2355.20;;;;;;4996369;28;20022;-83
2022/07/20 04:37:03;;;;;;;10.27;4.07;;;436.00;2355.20;;;;;;4996407;28;20113;-84
2022/07/20 04:39:29;;;;;;;8.50;4.38;;;436.10;2355.20;;;;;;4995901;28;20026;-83
2022/07/20 04:41:55;;;;;;;6.30;3.88;;;460.80;2380.80;;;;;;4996674;28;20061;-83
2022/07/20 04:44:21;;;;;;;10.07;4.53;;;460.80;2380.80;;;;;;4996410;28;20053;-85
2022/07/20 04:46:47;;;;;;;9.35;4.30;;;460.80;2380.80;;;;;;4996974;28;20467;-84
2022/07/20 04:49:13;;;;;;;13.82;4.70;;;460.80;2380.80;;;;;;4996472;28;20073;-83
2022/07/20 04:51:39;;;;;;;7.88;4.30;;;461.10;2380.80;;;;;;4996265;28;20022;-82
2022/07/20 04:54:05;;;;;;;13.75;5.10;;;461.20;2380.80;;;;;;4996989;28;20026;-83
2022/07/20 04:56:32;;;;;;;9.82;4.20;;;461.50;2380.80;;;;;;4995885;28;20395;-83
2022/07/20 04:59:01;;;;;;;10.60;4.82;;;461.40;2380.80;;;;;;4996885;28;20030;-83
2022/07/20 05:01:27;;;;;;;10.18;4.30;;;461.40;2380.80;;;;;;4996237;28;20031;-84
2022/07/20 05:03:53;;;;;;;8.50;4.78;;;461.50;2380.80;;;;;;4995689;28;20031;-84
2022/07/20 05:06:20;;;;;;;8.13;4.38;;;461.50;2380.80;;;;;;4995776;28;20034;-83
2022/07/20 05:08:50;;;;;;;10.02;3.85;;;461.60;2380.80;;;;;;4995476;28;20019;-84
2022/07/20 05:11:16;;;;;;;7.97;4.15;;;435.90;2355.20;;;;;;4996136;28;20114;-84
2022/07/20 05:13:45;;;;;;;12.40;4.28;;;461.50;2380.80;;;;;;4997333;28;20046;-82
2022/07/20 05:16:11;;;;;;;9.13;4.80;;;461.50;2380.80;;;;;;4996862;28;20451;-83
2022/07/20 05:18:37;;;;;;;6.95;4.05;;;461.70;2380.80;;;;;;4996746;28;20030;-82
2022/07/20 05:21:04;;;;;;;7.07;3.88;;;486.60;2380.80;;;;;;4996200;28;20118;-83
2022/07/20 05:23:30;;;;;;;8.52;4.15;;;461.60;2380.80;;;;;;4997833;28;20380;-83
2022/07/20 05:25:56;;;;;;;12.75;4.38;;;486.40;2380.80;;;;;;5002020;28;20121;-83
2022/07/20 05:28:22;;;;;;;8.15;4.57;;;486.40;2380.80;;;;;;4995609;28;20046;-84
2022/07/20 05:30:49;;;;;;;8.95;4.50;;;486.60;2380.80;;;;;;4995565;28;20113;-85
2022/07/20 05:33:17;;;;;;;8.20;4.78;;;486.60;2380.80;;;;;;4995169;28;20026;-82
2022/07/20 05:35:44;;;;;;;10.00;5.03;;;486.70;2380.80;;;;;;4995157;28;20053;-85
2022/07/20 05:38:13;;;;;;;8.30;4.70;;;486.70;2380.80;;;;;;4995218;28;20053;-83
2022/07/20 05:40:46;;;;;;;11.82;5.70;;;487.20;2380.80;;;;;;4995002;28;20361;-83
2022/07/20 05:43:38;;;;;;;13.38;5.22;;;487.00;2380.80;;;;;;4996459;28;20027;-84
2022/07/20 05:46:10;;;;;;;8.17;4.80;;;486.80;2380.80;;;;;;4997772;28;20117;-83
2022/07/20 05:48:45;;;;;;;8.35;4.60;;;486.90;2380.80;;;;;;4996056;28;20019;-84
2022/07/20 05:54:44;;;;;;;8.75;3.92;;;487.10;2380.80;;;;;;4973951;28;20054;-84
2022/07/20 05:57:16;;;;;;;12.85;4.32;;;487.20;2380.80;;;;;;4944214;28;20550;-83
2022/07/20 05:59:42;;;;;;;10.13;4.67;;;487.10;2380.80;;;;;;4994442;28;20049;-83
2022/07/20 06:02:09;;;;;;;9.20;3.97;;;512.40;2380.80;;;;;;4994609;28;20030;-83
2022/07/20 06:04:40;;;;;;;6.75;4.45;;;512.10;2380.80;;;;;;4994174;28;20023;-83
2022/07/20 06:07:10;;;;;;;7.50;3.73;;;512.10;2380.80;;;;;;4994060;28;20029;-84
2022/07/20 06:09:39;;;;;;;6.38;3.47;;;512.50;2380.80;;;;;;4994267;28;20053;-84
2022/07/20 06:12:08;;;;;;;6.38;3.75;;;537.90;2406.40;;;;;;4993977;28;20026;-83
2022/07/20 06:15:00;;;;;;;6.97;3.95;;;512.70;2380.80;;;;;;4994248;28;20023;-83
2022/07/20 06:17:39;;;;;;;10.38;4.13;;;512.90;2380.80;;;;;;4994478;28;20049;-84
2022/07/20 06:20:40;;;;;;;7.45;3.90;;;537.70;2406.40;;;;;;4994149;28;20027;-83
2022/07/20 06:23:12;;;;;;;10.65;5.05;;;537.80;2406.40;;;;;;4994116;28;20026;-83
2022/07/20 06:26:21;;;;;;;8.95;3.95;;;537.90;2406.40;;;;;;4994293;28;20036;-84
2022/07/20 06:28:39;;;;;;;9.25;4.35;;;538.00;2406.40;;;;;;4992031;28;20037;-82
2022/07/20 06:31:26;;;;;;;8.43;4.38;;;538.20;2406.40;;;;;;4994308;28;20015;-84
2022/07/20 06:33:55;;;;;;;14.38;7.20;;;538.40;2406.40;;;;;;4994748;28;20121;-83
2022/07/20 06:36:24;;;;;;;13.05;6.65;;;512.80;2380.80;;;;;;4994048;28;20431;-84
2022/07/20 06:38:56;;;;;;;11.00;5.13;;;537.60;2406.40;;;;;;4993996;28;20030;-85
2022/07/20 06:41:22;;;;;;;10.45;5.22;;;563.20;2432.00;;;;;;4993013;28;20373;-86
2022/07/20 06:44:08;;;;;;;11.30;5.05;;;563.30;2406.40;;;;;;4993981;28;20026;-82
2022/07/20 06:47:39;;;;;;;7.95;3.92;;;563.40;2380.80;;;;;;4993836;28;20444;-84
2022/07/20 06:50:59;;;;;;;11.30;4.47;;;563.60;2355.20;;;;;;4991102;28;20054;-83
2022/07/20 06:53:55;;;;;;;6.70;3.50;;;563.80;2355.20;;;;;;4992443;28;20031;-84
2022/07/20 06:57:25;;;;;;;;;;;;;;;;;;;;;
2022/07/20 07:00:17;;;;;;;5.78;3.42;;;;;;;;;;4991311;28;20031;-83
2022/07/20 07:02:43;;;;;;;10.18;3.08;;;589.30;2252.80;;;;;;4990321;28;20042;-85
2022/07/20 07:05:10;;;;;;;10.52;4.13;;;589.30;2252.80;;;;;;4992543;28;20117;-84
2022/07/20 07:07:39;;;;;;;6.43;3.60;;;589.30;2227.20;;;;;;4993370;28;20033;-83
2022/07/20 07:10:05;;;;;;;12.88;2.90;;;589.70;2201.60;;;;;;4993502;28;20022;-86
2022/07/20 07:12:31;;;;;;;8.30;3.50;;;589.60;2201.60;;;;;;4994513;28;20479;-88
2022/07/20 07:15:21;;;;;;;6.45;3.17;;;;;;;;;;4993335;28;20022;-87
2022/07/20 07:17:47;;;;;;;6.32;3.05;;;614.60;2150.40;;;;;;4994085;28;20373;-86
2022/07/20 07:20:12;;;;;;;9.50;3.03;;;614.70;2150.40;;;;;;4994102;28;20022;-84
2022/07/20 07:22:38;;;;;;;7.20;3.28;;;614.70;2124.80;;;;;;4993483;28;20026;-84
2022/07/20 07:25:05;;;;;;;5.95;3.30;;;614.80;2124.80;;;;;;4994301;28;20040;-87
2022/07/20 07:27:37;;;;;;;8.65;4.40;;;615.10;2099.20;;;;;;4993844;28;20484;-87
2022/07/20 07:30:06;;;;;;;12.45;5.72;;;615.30;2073.60;;;;;;4993660;28;20030;-86
2022/07/20 07:32:33;;;;;;;7.28;3.47;;;640.00;2073.60;;;;;;4993609;28;20041;-85
2022/07/20 07:35:04;;;;;;;6.55;3.10;;;615.30;2073.60;;;;;;4994640;28;20018;-86
2022/07/20 07:37:31;;;;;;;7.07;3.25;;;640.10;2124.80;;;;;;4994814;28;20035;-84
2022/07/20 07:40:33;;;;;;;11.77;8.20;;;640.30;2048.00;;;;;;4993514;28;20034;-85
2022/07/20 07:46:19;;;;;;;8.80;3.58;;;640.60;2048.00;;;;;;4953798;29;20002;-87
2022/07/20 07:48:44;;;;;;;8.63;4.25;;;640.70;1996.80;;;;;;4937995;29;20055;-84
2022/07/20 07:51:10;;;;;;;7.82;3.17;;;665.60;1996.80;;;;;;4982246;28;20027;-84
2022/07/20 07:53:37;;;;;;;8.77;3.75;;;665.70;1996.80;;;;;;4993619;28;20030;-87
2022/07/20 07:56:03;;;;;;;10.57;6.43;;;665.70;1971.20;;;;;;4993486;28;20368;-87
2022/07/20 08:02:01;;;;;;;8.68;3.70;;;666.00;1945.60;;;;;;4968948;28;20038;-86
2022/07/20 08:04:27;;;;;;;7.70;3.85;;;666.00;1945.60;;;;;;4951671;28;20617;-84
2022/07/20 08:06:53;;;;;;;5.15;2.70;;;666.30;1945.60;;;;;;4990032;28;20031;-87
2022/07/20 08:09:19;;;;;;;6.75;4.10;;;666.50;1920.00;;;;;;4992911;28;20122;-82
2022/07/20 08:11:46;;;;;;;7.28;4.10;;;691.20;1894.40;;;;;;4992940;28;20500;-81
2022/07/20 08:14:12;;;;;;;6.78;4.35;;;691.50;1868.80;;;;;;4992605;28;20085;-83
2022/07/20 08:16:43;;;;;;;8.95;4.30;;;691.60;1894.40;;;;;;4992498;28;20407;-87
2022/07/20 08:19:10;;;;;;;8.30;4.18;;;691.70;1868.80;;;;;;4992922;28;20030;-82
2022/07/20 08:21:36;;;;;;;22.23;19.90;;;691.70;1843.20;;;;;;4992786;28;20062;-84
2022/07/20 08:24:04;;;;;;;7.43;2.97;;;691.90;1868.80;;;;;;4992687;28;20030;-82
2022/07/20 08:26:30;;;;;;;5.68;3.05;;;692.10;1817.60;;;;;;4993969;28;20120;-83
2022/07/20 08:28:56;;;;;;;8.18;4.30;;;692.10;1792.00;;;;;;4995877;28;20536;-82
2022/07/20 08:31:21;;;;;;;7.82;3.13;;;716.90;1817.60;;;;;;4995624;28;20033;-81
2022/07/20 08:33:47;;;;;;;11.50;4.18;;;717.10;1792.00;;;;;;4995494;28;20030;-81
2022/07/20 08:36:13;;;;;;;8.20;3.95;;;717.50;1792.00;;;;;;4997048;28;20038;-83
2022/07/20 08:38:39;;;;;;;7.10;3.15;;;;;;;;;;5003897;28;20460;-83
2022/07/20 08:41:08;;;;;;;10.55;4.22;;;742.50;1792.00;;;;;;4994957;28;20109;-82
2022/07/20 08:43:34;;;;;;;6.03;2.42;;;;;;;;;;4994300;28;20544;-80
2022/07/20 08:46:01;;;;;;;9.70;3.67;;;;;;;;;;4995564;28;20048;-83
2022/07/20 08:48:28;;;;;;;6.80;2.88;;;;;;;;;;4996682;28;20070;-83
2022/07/20 08:50:54;;;;;;;8.13;2.80;;;;;;;;;;4996831;28;20018;-82
2022/07/20 08:53:20;;;;;;;7.75;2.83;;;743.00;1664.00;;;;;;4995542;28;20037;-85
2022/07/20 08:55:47;;;;;;;7.30;2.53;;;743.10;1715.20;;;;;;4995750;28;20030;-83
2022/07/20 08:58:18;;;;;;;8.05;2.60;;;743.30;1689.60;;;;;;4995779;28;20026;-86
2022/07/20 09:00:53;;;;;;;4.47;2.67;;;768.00;1715.20;;;;;;4996150;28;20018;-88
2022/07/20 09:03:25;;;;;;;7.63;2.72;;;;;;;;;;4996084;28;20257;-85
2022/07/20 09:06:04;;;;;;;5.45;2.22;;;768.10;1920.00;;;;;;4995779;28;20026;-84
2022/07/20 09:12:01;;;;;;;7.82;2.58;;;;;;;;;;4997123;28;20495;-86
2022/07/20 09:15:03;;;;;;;6.13;2.20;;;793.70;1587.20;;;;;;4998142;28;20519;-85
2022/07/20 09:17:30;;;;;;;6.50;3.23;;;793.70;1587.20;;;;;;4977805;28;20054;-83
2022/07/20 09:20:14;;;;;;;4.22;2.08;;;793.70;1587.20;;;;;;4994659;28;20113;-88
2022/07/20 09:22:47;;;;;;;11.00;4.28;;;793.90;1561.60;;;;;;4995970;28;20027;-87
2022/07/20 09:39:39;;;;;;;10.50;7.00;;;;;;;;;;4975258;28;20259;-86
2022/07/20 09:42:17;;;;;;;6.65;4.57;;;;;;;;;;4959844;28;20079;-88
2022/07/20 09:44:45;;;;;;;11.35;4.68;;;;;;;;;;4960007;28;20026;-87
2022/07/20 09:47:15;;;;;;;4.85;2.72;;;;;;;;;;4959718;28;20465;-87
2022/07/20 09:49:41;;;;;;;6.45;2.60;;;;;;;;;;4959733;28;20026;-86
2022/07/20 09:52:43;;;;;;;6.13;2.33;;;;;;;;;;4960811;28;20054;-89
2022/07/20 09:55:21;;;;;;;6.10;3.03;;;;;;;;;;4939464;28;20030;-88
2022/07/20 09:57:51;;;;;;;16.58;14.45;;;;;;;;;;4962484;28;20370;-87
2022/07/20 10:00:42;;;;;;;3.80;2.30;;;;;;;;;;4952484;29;20042;-90
2022/07/20 10:03:44;;;;;;;5.40;3.38;;;;;;;;;;4949209;29;20057;-89
2022/07/20 10:09:15;;;;;;;3.72;2.10;;;;;;;;;;4893161;29;20064;-87
2022/07/20 10:11:49;;;;;;;6.72;4.63;;;;;;;;;;4882635;29;20454;-88
2022/07/20 10:18:10;;;;;;;6.50;3.47;;;844.90;1484.80;;;;;;4900306;29;20096;-89
2022/07/20 10:20:36;;;;;;;6.50;2.67;;;;;;;;;;4883130;29;20526;-84
2022/07/20 10:23:15;;;;;;;6.43;2.38;;;;;;;;;;4911584;29;20555;-88
2022/07/20 10:25:42;;;;;;;4.30;2.00;;;;;;;;;;4959426;28;20031;-85
2022/07/20 10:28:36;;;;;;;9.90;2.75;;;870.40;1408.00;;;;;;4961897;28;20076;-87
2022/07/20 10:31:16;;;;;;;5.60;2.42;;;;;;;;;;4960375;28;20019;-86
2022/07/20 10:33:42;;;;;;;13.48;2.85;;;;;;;;;;4959771;28;20051;-86
2022/07/20 10:47:03;;;;;;;5.85;2.17;;;871.00;1331.20;;;;;;4922648;29;20394;-88
2022/07/20 10:53:14;;;;;;;6.43;2.30;;;870.60;1356.80;;;;;;4921576;29;20031;-90
2022/07/20 10:56:06;;;;;;;5.72;2.78;;;870.50;1305.60;;;;;;4934455;29;20055;-86
2022/07/20 10:58:52;;;;;;;5.50;1.83;;;870.60;1305.60;;;;;;4953711;29;20041;-85
2022/07/20 11:01:17;;;;;;;4.35;1.85;;;845.40;1280.00;;;;;;4942920;28;20035;-82
2022/07/20 11:03:48;;;;;;;3.28;1.92;;;845.70;1305.60;;;;;;4957620;28;20034;-81
2022/07/20 11:06:19;;;;;;;4.57;1.77;;;870.50;1305.60;;;;;;4958107;28;20050;-83
2022/07/20 11:08:56;;;;;;;8.27;2.08;;;845.70;1305.60;;;;;;4962643;28;20465;-81
2022/07/20 11:11:25;;;;;;;5.25;2.72;;;845.70;1280.00;;;;;;4965496;28;20167;-83
2022/07/20 11:13:51;;;;;;;4.10;2.00;;;870.50;1305.60;;;;;;4957848;28;20085;-82
2022/07/20 11:16:19;;;;;;;5.22;2.00;;;845.60;1305.60;;;;;;4958694;28;20031;-83
2022/07/20 11:18:47;;;;;;;3.13;1.50;;;870.40;1305.60;;;;;;4957629;28;20022;-83
2022/07/20 11:21:14;;;;;;;3.50;1.80;;;845.70;1305.60;;;;;;4974968;28;20047;-80
2022/07/20 11:23:42;;;;;;;4.28;2.00;;;870.60;1305.60;;;;;;4957756;28;20053;-82
2022/07/20 11:26:08;;;;;;;5.00;1.90;;;870.60;1280.00;;;;;;4957787;28;20432;-83
2022/07/20 11:28:38;;;;;;;7.00;1.92;;;870.70;1280.00;;;;;;4957505;28;20070;-81
2022/07/20 11:31:08;;;;;;;4.32;1.88;;;870.90;1305.60;;;;;;4958060;28;20030;-84
2022/07/20 11:33:44;;;;;;;5.18;1.88;;;870.80;1280.00;;;;;;4958116;28;20070;-83
2022/07/20 11:36:22;;;;;;;6.60;2.13;;;870.70;1280.00;;;;;;4957991;28;20031;-83
2022/07/20 11:38:54;;;;;;;4.20;2.20;;;870.40;1280.00;;;;;;4974760;28;20063;-86
2022/07/20 11:41:23;;;;;;;7.65;3.85;;;870.40;1280.00;;;;;;4957821;28;20081;-85
2022/07/20 11:43:50;;;;;;;8.20;3.08;;;870.70;1305.60;;;;;;4957918;28;20035;-85
2022/07/20 11:46:26;;;;;;;5.70;2.03;;;871.00;1280.00;;;;;;4957491;28;20432;-84
2022/07/20 11:48:56;;;;;;;3.90;2.10;;;871.30;1280.00;;;;;;4957737;28;20035;-83
2022/07/20 11:51:21;;;;;;;5.90;1.60;;;896.20;1280.00;;;;;;4957148;28;20058;-80
2022/07/20 11:53:47;;;;;;;3.92;1.55;;;896.20;1254.40;;;;;;4957579;28;20065;-84
2022/07/20 11:56:22;;;;;;;7.43;2.00;;;896.40;1254.40;;;;;;4941904;29;20469;-84
2022/07/20 11:58:50;;;;;;;11.80;8.57;;;896.90;1280.00;;;;;;4938613;29;20027;-84
2022/07/20 12:01:31;;;;;;;12.93;3.20;;;896.90;1254.40;;;;;;4942128;29;20078;-87
2022/07/20 12:03:59;;;;;;;7.13;2.87;;;;;;;;;;4942924;29;20477;-87
2022/07/20 12:06:31;;;;;;;6.80;5.38;;;922.10;1228.80;;;;;;4942452;29;20030;-85
2022/07/20 12:09:18;;;;;;;6.05;3.00;;;922.00;1228.80;;;;;;4944594;28;20030;-84
2022/07/20 12:11:56;;;;;;;4.95;3.65;;;922.00;1177.60;;;;;;4951432;28;20027;-84
2022/07/20 12:14:29;;;;;;;10.25;4.53;;;921.90;1228.80;;;;;;4951482;28;20026;-81
2022/07/20 12:16:56;;;;;;;6.43;4.35;;;922.00;1203.20;;;;;;4955740;28;20035;-82
2022/07/20 12:19:22;;;;;;;5.65;4.70;;;922.20;1203.20;;;;;;4960375;28;20031;-81
2022/07/20 12:21:49;;;;;;;6.55;3.92;;;922.30;1203.20;;;;;;4960516;28;20034;-82
2022/07/20 12:24:15;;;;;;;4.72;2.25;;;922.40;1228.80;;;;;;4958385;28;20077;-82
2022/07/20 12:26:43;;;;;;;5.15;2.55;;;922.50;1203.20;;;;;;4948722;28;20035;-81
2022/07/20 12:29:24;;;;;;;4.88;2.00;;;;;;;;;;4960627;28;20115;-82
2022/07/20 12:32:26;;;;;;;4.95;2.30;;;947.70;1203.20;;;;;;4960773;28;20031;-82
2022/07/20 12:34:54;;;;;;;3.30;1.67;;;947.60;1203.20;;;;;;4960284;28;20023;-81
2022/07/20 12:37:21;;;;;;;4.60;1.80;;;947.60;1228.80;;;;;;4977929;28;20062;-82
2022/07/20 12:39:53;;;;;;;3.92;1.92;;;947.40;1203.20;;;;;;4959966;28;20110;-82
2022/07/20 12:42:24;;;;;;;7.25;2.20;;;947.50;1203.20;;;;;;4977362;28;20034;-82
2022/07/20 12:45:01;;;;;;;3.58;1.38;;;947.20;1177.60;;;;;;4960917;28;20067;-80
2022/07/20 12:47:28;;;;;;;3.70;1.50;;;922.40;1203.20;;;;;;4960068;28;20117;-82
2022/07/20 12:49:54;;;;;;;3.85;1.67;;;921.60;1203.20;;;;;;4977440;28;20035;-82
2022/07/20 12:52:20;;;;;;;3.00;1.40;;;;;;;;;;4960349;28;20027;-84
2022/07/20 12:54:47;;;;;;;4.38;1.90;;;;;;;;;;4959933;28;20031;-80
2022/07/20 12:57:17;;;;;;;6.13;3.25;;;;;;;;;;4960250;28;20385;-80
2022/07/20 12:59:43;;;;;;;7.30;4.95;;;922.50;1228.80;;;;;;4959944;28;20094;-79
2022/07/20 13:02:09;;;;;;;5.72;4.00;;;;;;;;;;4958261;28;20058;-80
2022/07/20 13:04:35;;;;;;;6.20;3.30;;;;;;;;;;4973308;28;20023;-80
2022/07/20 13:07:01;;;;;;;7.30;3.30;;;;;;;;;;4976752;28;20031;-79
2022/07/20 13:09:27;;;;;;;4.32;1.95;;;;;;;;;;4959525;28;20027;-81
2022/07/20 13:11:54;;;;;;;3.90;1.88;;;;;;;;;;4959267;28;20556;-80
2022/07/20 13:14:22;;;;;;;5.82;2.10;;;;;;;;;;4959704;28;20057;-79
2022/07/20 13:16:49;;;;;;;3.90;2.20;;;;;;;;;;4959401;28;20059;-81
2022/07/20 13:19:15;;;;;;;7.78;4.68;;;;;;;;;;4959762;28;20026;-79
2022/07/20 13:21:43;;;;;;;9.20;5.68;;;;;;;;;;4977198;28;20034;-80
2022/07/20 13:24:10;;;;;;;3.03;1.45;;;;;;;;;;4976749;28;20365;-80
2022/07/20 13:26:36;;;;;;;3.45;1.85;;;;;;;;;;4959679;28;20027;-80
2022/07/20 13:29:03;;;;;;;4.85;2.10;;;;;;;;;;4959775;28;20050;-81
2022/07/20 13:31:31;;;;;;;7.15;2.45;;;;;;;;;;4959598;28;20026;-81
2022/07/20 13:33:57;;;;;;;5.55;2.30;;;;;;;;;;4959678;28;20034;-82
2022/07/20 13:36:24;;;;;;;3.53;1.90;;;;;;;;;;4959419;28;20444;-80
2022/07/20 13:38:52;;;;;;;3.05;1.63;;;;;;;;;;4959183;28;20526;-80
2022/07/20 13:41:18;;;;;;;3.47;1.88;;;;;;;;;;4959325;28;20023;-81
2022/07/20 13:43:44;;;;;;;6.85;2.30;;;;;;;;;;4959234;28;20027;-81
2022/07/20 13:46:11;;;;;;;6.88;2.40;;;;;;;;;;4959299;28;20464;-80
2022/07/20 13:48:38;;;;;;;4.65;1.80;;;;;;;;;;4958604;28;20043;-79
2022/07/20 13:51:04;;;;;;;4.40;2.10;;;;;;;;;;4943245;29;20023;-80